createdAt,value
2023-12-08T00:02:16.436Z,15.30
2023-12-08T00:04:43.348Z,14.68
2023-12-08T00:07:09.940Z,17.00
2023-12-08T00:09:36.497Z,15.95
2023-12-08T00:12:03.398Z,15.43
2023-12-08T00:14:30.156Z,14.80
2023-12-08T00:16:56.668Z,15.98
2023-12-08T00:19:23.382Z,16.60
2023-12-08T00:21:50.021Z,17.23
2023-12-08T00:24:16.590Z,16.63
2023-12-08T00:26:43.177Z,16.25
2023-12-08T00:29:09.776Z,14.45
2023-12-08T00:31:36.263Z,12.85
2023-12-08T00:34:03.132Z,13.50
2023-12-08T00:36:29.840Z,12.88
2023-12-08T00:38:56.378Z,11.80
2023-12-08T00:41:23.632Z,12.07
2023-12-08T00:43:50.242Z,12.20
2023-12-08T00:46:18.063Z,12.68
2023-12-08T00:48:44.832Z,12.05
2023-12-08T00:51:14.736Z,12.52
2023-12-08T00:53:42.108Z,12.05
2023-12-08T00:56:08.992Z,11.48
2023-12-08T00:58:35.646Z,11.10
2023-12-08T01:01:02.262Z,11.95
2023-12-08T01:03:28.976Z,11.77
2023-12-08T01:05:55.571Z,12.15
2023-12-08T01:08:22.338Z,11.38
2023-12-08T01:10:48.979Z,10.00
2023-12-08T01:13:15.458Z,11.65
2023-12-08T01:15:42.185Z,10.48
2023-12-08T01:18:09.912Z,10.20
2023-12-08T01:20:37.678Z,10.35
2023-12-08T01:23:04.228Z,10.55
2023-12-08T01:25:30.775Z,10.25
2023-12-08T01:27:57.433Z,9.88
2023-12-08T01:30:24.232Z,10.45
2023-12-08T01:32:50.891Z,10.15
2023-12-08T01:35:17.536Z,10.02
2023-12-08T01:37:44.178Z,10.32
2023-12-08T01:40:12.376Z,11.73
2023-12-08T01:42:39.877Z,10.95
2023-12-08T01:45:06.841Z,10.73
2023-12-08T01:47:33.615Z,11.02
2023-12-08T01:50:00.409Z,10.23
2023-12-08T01:52:27.045Z,9.88
2023-12-08T01:54:58.049Z,10.70
2023-12-08T01:57:24.886Z,10.43
2023-12-08T01:59:52.301Z,10.82
2023-12-08T02:02:19.993Z,10.77
2023-12-08T02:04:49.240Z,10.38
2023-12-08T02:07:15.920Z,10.15
2023-12-08T02:09:43.030Z,10.20
2023-12-08T02:12:10.385Z,9.32
2023-12-08T02:14:37.388Z,9.73
2023-12-08T02:17:06.695Z,8.68
2023-12-08T02:19:34.096Z,8.25
2023-12-08T02:22:00.818Z,9.57
2023-12-08T02:24:28.051Z,9.18
2023-12-08T02:26:54.667Z,9.18
2023-12-08T02:29:21.275Z,8.50
2023-12-08T02:32:01.880Z,7.90
2023-12-08T02:34:29.648Z,8.68
2023-12-08T02:36:57.397Z,8.80
2023-12-08T02:39:23.969Z,9.10
2023-12-08T02:41:51.630Z,9.35
2023-12-08T02:44:18.390Z,7.82
2023-12-08T02:46:45.109Z,8.32
2023-12-08T02:49:11.826Z,9.07
2023-12-08T02:51:38.426Z,8.07
2023-12-08T02:54:05.141Z,7.97
2023-12-08T02:56:31.751Z,8.55
2023-12-08T02:58:58.339Z,7.13
2023-12-08T03:01:25.101Z,7.95
2023-12-08T03:03:51.710Z,7.43
2023-12-08T03:06:18.442Z,8.15
2023-12-08T03:08:45.063Z,6.82
2023-12-08T03:11:11.600Z,8.82
2023-12-08T03:13:38.073Z,7.72
2023-12-08T03:16:04.787Z,8.07
2023-12-08T03:18:31.447Z,6.95
2023-12-08T03:20:58.115Z,7.53
2023-12-08T03:23:24.625Z,8.00
2023-12-08T03:25:51.144Z,7.40
2023-12-08T03:28:17.777Z,8.32
2023-12-08T03:30:44.451Z,7.57
2023-12-08T03:33:11.078Z,9.00
2023-12-08T03:35:37.689Z,8.52
2023-12-08T03:38:04.169Z,7.80
2023-12-08T03:40:30.738Z,7.85
2023-12-08T03:42:57.384Z,7.43
2023-12-08T03:45:23.896Z,7.07
2023-12-08T03:47:50.599Z,6.90
2023-12-08T03:50:17.255Z,7.60
2023-12-08T03:52:43.711Z,7.60
2023-12-08T03:55:10.228Z,7.80
2023-12-08T03:57:36.729Z,7.18
2023-12-08T04:00:03.472Z,8.07
2023-12-08T04:02:30.075Z,7.82
2023-12-08T04:04:56.605Z,8.07
2023-12-08T04:07:23.291Z,7.72
2023-12-08T04:09:50.143Z,8.20
2023-12-08T04:12:16.731Z,7.38
2023-12-08T04:14:45.227Z,7.82
2023-12-08T04:17:11.885Z,7.40
2023-12-08T04:19:38.546Z,7.35
2023-12-08T04:22:05.153Z,7.57
2023-12-08T04:24:31.769Z,7.22
2023-12-08T04:26:58.378Z,7.30
2023-12-08T04:29:24.989Z,7.07
2023-12-08T04:31:51.463Z,7.35
2023-12-08T04:34:18.045Z,6.45
2023-12-08T04:36:44.722Z,7.15
2023-12-08T04:39:11.354Z,7.60
2023-12-08T04:41:37.916Z,7.55
2023-12-08T04:44:04.700Z,6.88
2023-12-08T04:46:31.365Z,7.43
2023-12-08T04:48:58.016Z,6.18
2023-12-08T04:51:24.787Z,6.28
2023-12-08T04:53:51.840Z,7.20
2023-12-08T04:56:18.449Z,5.65
2023-12-08T04:58:44.963Z,6.50
2023-12-08T05:01:15.335Z,6.32
2023-12-08T05:03:42.169Z,6.70
2023-12-08T05:06:09.708Z,6.25
2023-12-08T05:08:37.160Z,7.18
2023-12-08T05:11:03.737Z,6.95
2023-12-08T05:13:30.228Z,7.25
2023-12-08T05:15:56.736Z,6.68
2023-12-08T05:18:23.416Z,7.43
2023-12-08T05:20:50.038Z,7.47
2023-12-08T05:23:16.720Z,7.03
2023-12-08T05:25:43.229Z,8.57
2023-12-08T05:28:09.838Z,9.57
2023-12-08T05:30:36.898Z,10.25
2023-12-08T05:33:03.848Z,10.77
2023-12-08T05:35:30.464Z,9.27
2023-12-08T05:37:56.955Z,10.82
2023-12-08T05:40:24.406Z,9.75
2023-12-08T05:42:51.001Z,9.40
2023-12-08T05:45:17.678Z,10.10
2023-12-08T05:47:44.754Z,11.10
2023-12-08T05:50:11.698Z,10.70
2023-12-08T05:52:38.237Z,11.68
2023-12-08T05:55:04.908Z,10.73
2023-12-08T05:57:31.922Z,11.82
2023-12-08T05:59:58.624Z,11.98
2023-12-08T06:02:25.202Z,12.20
2023-12-08T06:04:51.726Z,11.80
2023-12-08T06:07:18.668Z,13.15
2023-12-08T06:09:45.369Z,12.10
2023-12-08T06:12:12.119Z,12.30
2023-12-08T06:14:38.644Z,13.10
2023-12-08T06:17:07.401Z,11.63
2023-12-08T06:19:34.992Z,12.50
2023-12-08T06:22:01.559Z,11.85
2023-12-08T06:24:28.186Z,14.13
2023-12-08T06:26:54.696Z,12.43
2023-12-08T06:29:21.341Z,13.75
2023-12-08T06:31:48.048Z,12.73
2023-12-08T06:34:17.238Z,12.70
2023-12-08T06:36:45.396Z,11.73
2023-12-08T06:39:13.384Z,10.82
2023-12-08T06:41:39.905Z,12.43
2023-12-08T06:44:06.458Z,12.77
2023-12-08T06:46:32.997Z,12.63
2023-12-08T06:48:59.639Z,12.30
2023-12-08T06:51:26.259Z,12.95
2023-12-08T06:53:54.224Z,13.65
2023-12-08T06:56:23.113Z,11.80
2023-12-08T06:58:49.950Z,12.50
2023-12-08T07:01:16.554Z,12.68
2023-12-08T07:03:43.168Z,11.98
2023-12-08T07:06:09.700Z,13.10
2023-12-08T07:08:36.258Z,12.80
2023-12-08T07:11:03.886Z,11.88
2023-12-08T07:13:30.708Z,11.88
2023-12-08T07:15:57.376Z,12.18
2023-12-08T07:18:23.934Z,12.70
2023-12-08T07:20:51.732Z,15.23
2023-12-08T07:23:18.376Z,14.48
2023-12-08T07:25:44.980Z,15.15
2023-12-08T07:28:11.603Z,15.23
2023-12-08T07:30:38.674Z,14.75
2023-12-08T07:33:05.661Z,15.50
2023-12-08T07:35:32.332Z,14.80
2023-12-08T07:37:58.992Z,14.63
2023-12-08T07:40:25.638Z,14.73
2023-12-08T07:42:52.264Z,15.23
2023-12-08T07:45:18.811Z,14.65
2023-12-08T07:47:49.648Z,15.20
2023-12-08T07:50:16.881Z,15.77
2023-12-08T07:52:43.551Z,15.50
2023-12-08T07:55:10.739Z,15.82
2023-12-08T07:57:37.507Z,16.20
2023-12-08T08:00:11.878Z,15.43
2023-12-08T08:02:38.744Z,16.95
2023-12-08T08:05:06.189Z,15.63
2023-12-08T08:07:33.107Z,15.70
2023-12-08T08:09:59.969Z,14.75
2023-12-08T08:12:26.446Z,16.98
2023-12-08T08:14:52.998Z,16.15
2023-12-08T08:17:19.602Z,15.35
2023-12-08T08:19:46.223Z,15.75
2023-12-08T08:22:29.340Z,17.38
2023-12-08T08:24:58.946Z,17.00
2023-12-08T08:27:26.501Z,16.83
2023-12-08T08:29:53.579Z,16.77
2023-12-08T08:32:20.278Z,17.65
2023-12-08T08:34:47.027Z,17.35
2023-12-08T08:37:13.700Z,20.05
2023-12-08T08:39:40.248Z,17.27
2023-12-08T08:42:06.959Z,17.80
2023-12-08T08:44:34.293Z,17.95
2023-12-08T08:47:00.864Z,18.75
2023-12-08T08:49:27.667Z,17.75
2023-12-08T08:51:54.268Z,17.80
2023-12-08T08:54:21.087Z,17.45
2023-12-08T08:56:47.589Z,18.58
2023-12-08T08:59:14.143Z,19.50
2023-12-08T09:01:41.665Z,16.75
2023-12-08T09:04:08.952Z,17.55
2023-12-08T09:06:35.847Z,18.17
2023-12-08T09:09:02.414Z,20.67
2023-12-08T09:11:28.974Z,19.70
2023-12-08T09:13:55.463Z,20.20
2023-12-08T09:16:21.987Z,20.70
2023-12-08T09:18:48.673Z,18.80
2023-12-08T09:21:15.357Z,20.15
2023-12-08T09:23:42.347Z,18.13
2023-12-08T09:26:08.847Z,17.30
2023-12-08T09:28:35.346Z,17.85
2023-12-08T09:31:02.149Z,17.77
2023-12-08T09:33:29.927Z,19.58
2023-12-08T09:35:56.859Z,18.90
2023-12-08T09:38:31.331Z,21.13
2023-12-08T09:41:02.271Z,20.08
2023-12-08T09:43:33.079Z,20.48
2023-12-08T09:45:59.941Z,20.13
2023-12-08T09:48:27.694Z,21.20
2023-12-08T09:50:54.686Z,20.83
2023-12-08T09:53:21.607Z,21.13
2023-12-08T09:55:48.726Z,19.25
2023-12-08T09:58:16.049Z,19.27
2023-12-08T10:00:43.717Z,18.83
2023-12-08T10:03:10.677Z,18.67
2023-12-08T10:05:37.466Z,18.55
2023-12-08T10:08:04.176Z,19.08
2023-12-08T10:10:31.347Z,16.33
2023-12-08T10:12:59.447Z,14.32
2023-12-08T10:15:27.029Z,12.70
2023-12-08T10:17:54.386Z,11.75
2023-12-08T10:20:22.135Z,12.60
2023-12-08T10:22:52.798Z,12.48
2023-12-08T10:25:20.290Z,11.80
2023-12-08T10:27:47.807Z,10.80
2023-12-08T10:30:15.584Z,13.07
2023-12-08T10:32:43.369Z,11.57
2023-12-08T10:35:12.278Z,11.77
2023-12-08T10:37:40.611Z,13.77
2023-12-08T10:40:11.212Z,13.95
2023-12-08T10:42:38.136Z,14.13
2023-12-08T10:45:15.337Z,13.50
2023-12-08T10:47:44.216Z,13.20
2023-12-08T10:50:14.322Z,15.45
2023-12-08T10:52:41.367Z,12.88
2023-12-08T10:55:08.843Z,12.55
2023-12-08T10:57:35.587Z,12.32
2023-12-08T11:00:12.460Z,13.45
2023-12-08T11:02:40.762Z,13.15
2023-12-08T11:05:10.063Z,12.23
2023-12-08T11:07:37.372Z,13.93
2023-12-08T11:10:07.875Z,13.55
2023-12-08T11:12:41.525Z,13.07
2023-12-08T11:15:10.716Z,14.63
2023-12-08T11:18:03.666Z,19.00
2023-12-08T11:20:30.539Z,18.83
2023-12-08T11:22:57.247Z,18.48
2023-12-08T11:25:37.761Z,18.00
2023-12-08T11:28:16.679Z,18.23
2023-12-08T11:30:46.962Z,17.42
2023-12-08T11:33:37.127Z,17.30
2023-12-08T11:36:08.238Z,16.77
2023-12-08T11:38:34.895Z,16.50
2023-12-08T11:41:01.522Z,17.00
2023-12-08T11:43:28.353Z,16.33
2023-12-08T11:45:54.986Z,14.63
2023-12-08T11:48:21.651Z,14.88
2023-12-08T11:50:48.417Z,14.43
2023-12-08T11:53:15.018Z,13.93
2023-12-08T11:55:41.656Z,16.00
2023-12-08T11:58:10.832Z,13.90
2023-12-08T12:00:38.550Z,15.00
2023-12-08T12:03:06.520Z,14.65
2023-12-08T12:05:33.335Z,14.68
2023-12-08T12:08:00.048Z,14.95
2023-12-08T12:10:26.554Z,14.52
2023-12-08T12:12:57.847Z,15.07
2023-12-08T12:15:26.587Z,15.30
2023-12-08T12:17:53.501Z,15.18
2023-12-08T12:20:20.278Z,15.70
2023-12-08T12:22:47.012Z,15.02
2023-12-08T12:25:13.686Z,16.02
2023-12-08T12:27:44.161Z,16.08
2023-12-08T12:30:11.333Z,16.42
2023-12-08T12:32:41.276Z,15.27
2023-12-08T12:35:08.686Z,15.80
2023-12-08T12:37:35.651Z,16.05
2023-12-08T12:40:02.176Z,16.15
2023-12-08T12:42:28.773Z,16.25
2023-12-08T12:44:55.298Z,14.55
2023-12-08T12:47:22.679Z,15.85
2023-12-08T12:50:05.466Z,15.15
2023-12-08T12:52:33.966Z,15.93
2023-12-08T12:55:00.778Z,16.15
2023-12-08T12:57:51.650Z,15.45
2023-12-08T13:00:34.289Z,15.50
2023-12-08T13:03:11.444Z,15.45
2023-12-08T13:05:48.429Z,15.40
2023-12-08T13:08:16.873Z,15.77
2023-12-08T13:10:45.029Z,16.60
2023-12-08T13:13:13.490Z,16.23
2023-12-08T13:15:40.187Z,17.38
2023-12-08T13:18:07.264Z,16.80
2023-12-08T13:20:36.419Z,17.88
2023-12-08T13:23:03.600Z,17.27
2023-12-08T13:25:30.208Z,17.30
2023-12-08T13:27:56.881Z,16.00
2023-12-08T13:30:23.634Z,17.10
2023-12-08T13:32:50.641Z,17.88
2023-12-08T13:35:17.260Z,17.30
2023-12-08T13:37:43.966Z,16.15
2023-12-08T13:40:13.262Z,16.42
2023-12-08T13:42:40.509Z,15.35
2023-12-08T13:45:08.218Z,17.95
2023-12-08T13:47:34.814Z,17.55
2023-12-08T13:50:01.355Z,17.27
2023-12-08T13:52:28.435Z,17.15
2023-12-08T13:54:55.100Z,16.92
2023-12-08T13:57:21.621Z,17.52
2023-12-08T13:59:48.243Z,17.77
2023-12-08T14:02:14.929Z,17.73
2023-12-08T14:04:41.618Z,18.20
2023-12-08T14:07:08.227Z,19.08
2023-12-08T14:09:35.377Z,19.05
2023-12-08T14:12:01.928Z,18.25
2023-12-08T14:14:28.475Z,17.23
2023-12-08T14:16:54.981Z,19.08
2023-12-08T14:19:21.661Z,19.30
2023-12-08T14:21:48.712Z,18.80
2023-12-08T14:24:15.366Z,18.90
2023-12-08T14:26:42.602Z,17.92
2023-12-08T14:29:09.225Z,19.23
2023-12-08T14:31:35.776Z,18.70
2023-12-08T14:34:02.550Z,19.17
2023-12-08T14:36:29.340Z,18.52
2023-12-08T14:38:55.918Z,17.00
2023-12-08T14:41:22.496Z,19.30
2023-12-08T14:43:49.030Z,20.48
2023-12-08T14:46:21.659Z,19.60
2023-12-08T14:48:50.403Z,20.33
2023-12-08T14:51:21.447Z,20.50
2023-12-08T14:53:48.210Z,20.95
2023-12-08T14:56:16.964Z,21.02
2023-12-08T14:58:44.280Z,19.25
2023-12-08T15:01:18.810Z,19.00
2023-12-08T15:03:46.366Z,19.70
2023-12-08T15:06:14.083Z,19.70
2023-12-08T15:08:41.287Z,18.55
2023-12-08T15:11:08.377Z,20.42
2023-12-08T15:13:35.471Z,20.05
2023-12-08T15:16:02.375Z,19.73
2023-12-08T15:18:29.203Z,20.45
2023-12-08T15:20:56.263Z,20.77
2023-12-08T15:23:25.025Z,19.38
2023-12-08T15:25:54.087Z,21.58
2023-12-08T15:28:20.729Z,20.40
2023-12-08T15:30:47.394Z,20.60
2023-12-08T15:33:14.283Z,21.48
2023-12-08T15:35:41.761Z,21.63
2023-12-08T15:38:10.707Z,21.00
2023-12-08T15:40:37.791Z,20.73
2023-12-08T15:43:04.842Z,21.20
2023-12-08T15:45:31.593Z,21.38
2023-12-08T15:47:59.416Z,20.80
2023-12-08T15:50:26.262Z,20.27
2023-12-08T15:52:52.962Z,19.42
2023-12-08T15:55:19.678Z,20.73
2023-12-08T15:57:46.405Z,19.42
2023-12-08T16:00:13.329Z,19.17
2023-12-08T16:02:40.463Z,20.88
2023-12-08T16:05:07.301Z,19.88
2023-12-08T16:07:34.003Z,20.63
2023-12-08T16:10:00.763Z,20.05
2023-12-08T16:12:27.873Z,22.17
2023-12-08T16:14:54.723Z,25.63
2023-12-08T16:17:21.681Z,24.42
2023-12-08T16:19:48.710Z,22.63
2023-12-08T16:22:16.270Z,22.92
2023-12-08T16:24:47.962Z,22.67
2023-12-08T16:27:15.161Z,21.73
2023-12-08T16:29:45.868Z,22.05
2023-12-08T16:32:12.861Z,22.33
2023-12-08T16:34:39.439Z,23.10
2023-12-08T16:37:06.086Z,23.23
2023-12-08T16:39:32.778Z,25.65
2023-12-08T16:41:59.324Z,24.23
2023-12-08T16:44:25.846Z,24.17
2023-12-08T16:46:53.942Z,23.95
2023-12-08T16:49:21.067Z,22.17
2023-12-08T16:51:48.294Z,24.05
2023-12-08T16:54:14.977Z,24.52
2023-12-08T16:56:41.683Z,22.27
2023-12-08T16:59:08.219Z,22.65
2023-12-08T17:01:34.931Z,21.08
2023-12-08T17:04:01.613Z,22.55
2023-12-08T17:06:28.465Z,24.60
2023-12-08T17:08:55.030Z,25.60
2023-12-08T17:11:21.787Z,25.33
2023-12-08T17:13:48.340Z,23.63
2023-12-08T17:16:14.898Z,22.77
2023-12-08T17:18:41.639Z,20.70
2023-12-08T17:21:08.272Z,19.77
2023-12-08T17:23:34.870Z,21.35
2023-12-08T17:26:01.375Z,21.40
2023-12-08T17:28:27.980Z,22.20
2023-12-08T17:30:54.682Z,23.77
2023-12-08T17:33:21.384Z,22.90
2023-12-08T17:35:48.209Z,23.85
2023-12-08T17:38:17.046Z,25.92
2023-12-08T17:40:44.191Z,22.20
2023-12-08T17:43:10.960Z,22.40
2023-12-08T17:45:38.945Z,21.88
2023-12-08T17:48:08.824Z,21.92
2023-12-08T17:50:35.539Z,21.98
2023-12-08T17:53:02.051Z,22.15
2023-12-08T17:55:28.753Z,22.27
2023-12-08T17:57:55.341Z,21.25
2023-12-08T18:00:22.106Z,22.52
2023-12-08T18:02:56.200Z,21.35
2023-12-08T18:05:23.083Z,22.70
2023-12-08T18:07:49.654Z,21.35
2023-12-08T18:10:16.315Z,20.98
2023-12-08T18:12:42.853Z,22.92
2023-12-08T18:15:10.045Z,21.58
2023-12-08T18:17:37.095Z,22.15
2023-12-08T18:20:04.234Z,22.85
2023-12-08T18:22:32.996Z,24.00
2023-12-08T18:24:59.538Z,22.42
2023-12-08T18:27:38.052Z,24.15
2023-12-08T18:30:13.024Z,23.42
2023-12-08T18:32:39.657Z,23.85
2023-12-08T18:35:06.415Z,23.83
2023-12-08T18:37:32.939Z,23.25
2023-12-08T18:40:01.212Z,23.60
2023-12-08T18:42:28.076Z,23.42
2023-12-08T18:44:54.802Z,25.05
2023-12-08T18:47:22.052Z,23.55
2023-12-08T18:49:49.398Z,22.77
2023-12-08T18:52:16.898Z,22.23
2023-12-08T18:54:43.619Z,25.05
2023-12-08T18:57:10.319Z,23.67
2023-12-08T18:59:39.282Z,24.25
2023-12-08T19:02:06.562Z,25.42
2023-12-08T19:04:36.048Z,24.95
2023-12-08T19:07:05.829Z,24.95
2023-12-08T19:09:32.697Z,25.35
2023-12-08T19:12:03.193Z,25.90
2023-12-08T19:14:31.023Z,24.83
2023-12-08T19:16:57.511Z,25.15
2023-12-08T19:19:26.189Z,27.83
2023-12-08T19:21:53.640Z,25.30
2023-12-08T19:24:20.345Z,27.00
2023-12-08T19:26:47.095Z,26.35
2023-12-08T19:29:13.720Z,26.88
2023-12-08T19:31:40.256Z,27.85
2023-12-08T19:34:07.008Z,27.40
2023-12-08T19:36:33.697Z,27.52
2023-12-08T19:39:08.277Z,30.75
2023-12-08T19:41:34.983Z,28.52
2023-12-08T19:44:01.668Z,30.42
2023-12-08T19:46:28.137Z,30.35
2023-12-08T19:48:54.903Z,32.03
2023-12-08T19:51:22.095Z,29.38
2023-12-08T19:53:48.603Z,31.42
2023-12-08T19:56:15.173Z,30.60
2023-12-08T19:58:42.542Z,27.58
2023-12-08T20:01:09.615Z,28.75
2023-12-08T20:03:36.352Z,30.60
2023-12-08T20:06:03.290Z,30.38
2023-12-08T20:08:29.885Z,29.42
2023-12-08T20:10:58.452Z,29.38
2023-12-08T20:13:25.522Z,28.70
2023-12-08T20:15:52.110Z,27.38
2023-12-08T20:18:19.037Z,31.63
2023-12-08T20:20:45.844Z,29.48
2023-12-08T20:23:12.859Z,28.98
2023-12-08T20:25:40.229Z,29.02
2023-12-08T20:28:07.199Z,28.90
2023-12-08T20:30:35.699Z,30.17
2023-12-08T20:33:02.484Z,28.67
2023-12-08T20:35:29.020Z,29.88
2023-12-08T20:37:56.773Z,30.42
2023-12-08T20:40:23.379Z,30.65
2023-12-08T20:42:50.160Z,27.92
2023-12-08T20:45:16.964Z,26.85
2023-12-08T20:47:43.755Z,28.63
2023-12-08T20:50:10.834Z,30.25
2023-12-08T20:52:37.590Z,28.85
2023-12-08T20:55:04.617Z,27.50
2023-12-08T20:57:31.563Z,29.50
2023-12-08T20:59:58.342Z,28.63
2023-12-08T21:02:25.135Z,29.00
2023-12-08T21:04:51.826Z,30.35
2023-12-08T21:07:18.511Z,28.42
2023-12-08T21:09:45.481Z,28.17
2023-12-08T21:12:12.729Z,29.65
2023-12-08T21:14:39.515Z,29.20
2023-12-08T21:17:06.238Z,30.25
2023-12-08T21:19:33.000Z,30.27
2023-12-08T21:22:02.637Z,29.65
2023-12-08T21:24:29.678Z,28.90
2023-12-08T21:26:56.374Z,29.38
2023-12-08T21:29:23.022Z,28.63
2023-12-08T21:31:51.081Z,31.55
2023-12-08T21:34:17.762Z,28.92
2023-12-08T21:36:44.720Z,29.88
2023-12-08T21:39:11.685Z,31.02
2023-12-08T21:41:38.391Z,31.08
2023-12-08T21:44:05.257Z,31.60
2023-12-08T21:46:31.949Z,33.05
2023-12-08T21:48:59.919Z,32.28
2023-12-08T21:51:27.005Z,33.15
2023-12-08T21:53:54.366Z,31.55
2023-12-08T21:56:29.115Z,30.88
2023-12-08T21:58:57.877Z,31.02
2023-12-08T22:01:24.681Z,30.85
2023-12-08T22:03:51.588Z,29.33
2023-12-08T22:06:18.449Z,28.65
2023-12-08T22:08:45.085Z,28.45
2023-12-08T22:11:11.694Z,29.98
2023-12-08T22:13:38.298Z,30.55
2023-12-08T22:16:05.230Z,30.73
2023-12-08T22:18:32.058Z,29.88
2023-12-08T22:20:59.419Z,29.23
2023-12-08T22:23:27.245Z,31.27
2023-12-08T22:25:53.850Z,31.65
2023-12-08T22:28:24.221Z,31.30
2023-12-08T22:30:50.864Z,30.63
2023-12-08T22:33:17.631Z,28.58
2023-12-08T22:35:44.394Z,30.25
2023-12-08T22:38:12.134Z,29.63
2023-12-08T22:40:38.781Z,28.70
2023-12-08T22:43:05.451Z,30.10
2023-12-08T22:45:32.415Z,30.17
2023-12-08T22:47:59.302Z,30.00
2023-12-08T22:50:32.233Z,30.30
2023-12-08T22:53:05.212Z,30.95
2023-12-08T22:55:31.881Z,30.05
2023-12-08T22:57:58.950Z,30.15
2023-12-08T23:00:25.778Z,32.40
2023-12-08T23:02:53.659Z,30.90
2023-12-08T23:05:21.175Z,29.48
2023-12-08T23:07:48.107Z,30.67
2023-12-08T23:10:15.153Z,30.90
2023-12-08T23:12:42.239Z,32.53
2023-12-08T23:15:09.444Z,33.10
2023-12-08T23:17:36.434Z,31.95
2023-12-08T23:20:03.334Z,30.95
2023-12-08T23:22:30.279Z,30.00
2023-12-08T23:24:57.386Z,30.58
2023-12-08T23:27:24.279Z,35.08
2023-12-08T23:29:51.028Z,29.70
2023-12-08T23:32:17.813Z,32.67
2023-12-08T23:34:44.639Z,31.42
2023-12-08T23:37:11.425Z,31.52
2023-12-08T23:39:39.637Z,31.33
2023-12-08T23:42:06.935Z,31.23
2023-12-08T23:44:33.828Z,30.17
2023-12-08T23:47:00.873Z,30.15
2023-12-08T23:49:27.803Z,32.72
2023-12-08T23:51:54.805Z,31.92
2023-12-08T23:54:21.459Z,30.60
2023-12-08T23:56:48.345Z,33.33
2023-12-08T23:59:14.985Z,31.80
